DAL1334 KLAX-KLAS
Flight info
| Callsign | DAL1334 |
|---|---|
| Flight time | 0h 47m |
| Altitude | 29000 |
| Route | ORCKA5 MISEN RNDRZ3 |
| Aircraft | B739/M-SDE2E3FGHIRWXY/LB1 |
Departure
| Time | 2026-05-07 19:52 |
|---|---|
| Airport | Los Angeles International Airport (KLAX) |
Arrival
| Time | 2026-05-07 20:40 |
|---|---|
| Airport | Harry Reid International Airport (KLAS) |
| Time | Latitude | Longitude | Altitude | Speed | Heading |
|---|---|---|---|---|---|
| 2026-05-07 19:26 | 33.94628 | -118.40496 | 130 ft | 0 kts | 105° |
| 2026-05-07 19:44 | 33.94628 | -118.40497 | 125 ft | 2 kts | 105° |
| 2026-05-07 19:44 | 33.94634 | -118.40526 | 121 ft | 4 kts | 98° |
| 2026-05-07 19:45 | 33.94634 | -118.40556 | 124 ft | 4 kts | 52° |
| 2026-05-07 19:45 | 33.94624 | -118.40562 | 119 ft | 3 kts | 352° |
| 2026-05-07 19:45 | 33.94597 | -118.40559 | 120 ft | 4 kts | 352° |
| 2026-05-07 19:45 | 33.94577 | -118.40556 | 121 ft | 0 kts | 353° |
| 2026-05-07 19:49 | 33.94620 | -118.40563 | 119 ft | 12 kts | 351° |
| 2026-05-07 19:49 | 33.94709 | -118.40577 | 123 ft | 13 kts | 355° |
| 2026-05-07 19:49 | 33.94794 | -118.40593 | 122 ft | 14 kts | 345° |
| 2026-05-07 19:49 | 33.94867 | -118.40571 | 123 ft | 12 kts | 77° |
| 2026-05-07 19:50 | 33.94879 | -118.40458 | 121 ft | 17 kts | 82° |
| 2026-05-07 19:50 | 33.94898 | -118.40289 | 125 ft | 22 kts | 83° |
| 2026-05-07 19:50 | 33.94917 | -118.40106 | 125 ft | 22 kts | 83° |
| 2026-05-07 19:50 | 33.94944 | -118.39940 | 123 ft | 16 kts | 57° |
| 2026-05-07 19:51 | 33.94961 | -118.39920 | 125 ft | 3 kts | 32° |
| 2026-05-07 19:51 | 33.95017 | -118.39918 | 122 ft | 11 kts | 358° |
| 2026-05-07 19:51 | 33.95040 | -118.39986 | 123 ft | 11 kts | 258° |
| 2026-05-07 19:51 | 33.95030 | -118.40076 | 125 ft | 12 kts | 263° |
| 2026-05-07 19:52 | 33.95015 | -118.40222 | 122 ft | 42 kts | 263° |
| 2026-05-07 19:52 | 33.94949 | -118.40884 | 121 ft | 120 kts | 263° |
| 2026-05-07 19:52 | 33.94828 | -118.42075 | 217 ft | 172 kts | 261° |
| 2026-05-07 19:52 | 33.94624 | -118.43562 | 932 ft | 187 kts | 260° |
| 2026-05-07 19:53 | 33.94453 | -118.45110 | 2015 ft | 181 kts | 263° |
| 2026-05-07 19:53 | 33.94278 | -118.46678 | 2607 ft | 200 kts | 263° |
| 2026-05-07 19:53 | 33.94040 | -118.48442 | 2841 ft | 227 kts | 256° |
| 2026-05-07 19:53 | 33.93718 | -118.49312 | 2980 ft | 238 kts | 236° |
| 2026-05-07 19:54 | 33.92382 | -118.50530 | 3520 ft | 251 kts | 204° |
| 2026-05-07 19:54 | 33.90592 | -118.50834 | 3890 ft | 271 kts | 172° |
| 2026-05-07 19:54 | 33.88871 | -118.49960 | 4674 ft | 277 kts | 142° |
| 2026-05-07 19:54 | 33.87686 | -118.48117 | 5506 ft | 285 kts | 111° |
| 2026-05-07 19:55 | 33.87442 | -118.45793 | 6432 ft | 283 kts | 80° |
| 2026-05-07 19:55 | 33.88225 | -118.43646 | 7247 ft | 282 kts | 49° |
| 2026-05-07 19:55 | 33.89627 | -118.42004 | 8182 ft | 280 kts | 40° |
| 2026-05-07 19:55 | 33.91113 | -118.40475 | 9082 ft | 280 kts | 40° |
| 2026-05-07 19:56 | 33.92582 | -118.38959 | 10079 ft | 279 kts | 40° |
| 2026-05-07 19:56 | 33.94067 | -118.37394 | 10629 ft | 293 kts | 41° |
| 2026-05-07 19:56 | 33.95651 | -118.35687 | 10816 ft | 318 kts | 42° |
| 2026-05-07 19:56 | 33.97336 | -118.33845 | 11204 ft | 333 kts | 43° |
| 2026-05-07 19:57 | 33.99061 | -118.31941 | 11875 ft | 339 kts | 43° |
| 2026-05-07 19:57 | 34.00769 | -118.29973 | 12594 ft | 342 kts | 47° |
| 2026-05-07 19:57 | 34.02225 | -118.27686 | 13250 ft | 346 kts | 56° |
| 2026-05-07 19:57 | 34.03568 | -118.25278 | 13955 ft | 348 kts | 56° |
| 2026-05-07 19:58 | 34.04925 | -118.22831 | 14503 ft | 352 kts | 56° |
| 2026-05-07 19:58 | 34.05833 | -118.21199 | 14913 ft | 354 kts | 56° |
| 2026-05-07 19:58 | 34.07212 | -118.18737 | 15514 ft | 355 kts | 56° |
| 2026-05-07 19:58 | 34.09061 | -118.15459 | 16277 ft | 358 kts | 56° |
| 2026-05-07 19:59 | 34.10472 | -118.12962 | 16838 ft | 361 kts | 56° |
| 2026-05-07 19:59 | 34.11888 | -118.10456 | 17372 ft | 363 kts | 55° |
| 2026-05-07 19:59 | 34.13313 | -118.07930 | 17903 ft | 365 kts | 55° |
| 2026-05-07 19:59 | 34.14749 | -118.05385 | 18421 ft | 367 kts | 55° |
| 2026-05-07 20:00 | 34.15723 | -118.03657 | 18736 ft | 368 kts | 55° |
| 2026-05-07 20:00 | 34.17144 | -118.01133 | 19138 ft | 370 kts | 55° |
| 2026-05-07 20:00 | 34.18599 | -117.98547 | 19502 ft | 374 kts | 55° |
| 2026-05-07 20:00 | 34.20065 | -117.95941 | 19848 ft | 377 kts | 55° |
| 2026-05-07 20:01 | 34.21538 | -117.93320 | 20247 ft | 377 kts | 55° |
| 2026-05-07 20:01 | 34.23020 | -117.90680 | 20588 ft | 381 kts | 55° |
| 2026-05-07 20:01 | 34.24518 | -117.88008 | 20911 ft | 384 kts | 55° |
| 2026-05-07 20:01 | 34.26019 | -117.85331 | 21280 ft | 386 kts | 55° |
| 2026-05-07 20:02 | 34.27528 | -117.82638 | 21626 ft | 387 kts | 55° |
| 2026-05-07 20:02 | 34.29039 | -117.79938 | 21937 ft | 389 kts | 55° |
| 2026-05-07 20:02 | 34.30565 | -117.77210 | 22245 ft | 393 kts | 55° |
| 2026-05-07 20:02 | 34.32098 | -117.74472 | 22553 ft | 395 kts | 55° |
| 2026-05-07 20:03 | 34.33643 | -117.71706 | 22901 ft | 396 kts | 55° |
| 2026-05-07 20:03 | 34.35183 | -117.68945 | 23240 ft | 398 kts | 54° |
| 2026-05-07 20:03 | 34.36775 | -117.66192 | 23506 ft | 400 kts | 53° |
| 2026-05-07 20:03 | 34.38414 | -117.63453 | 23761 ft | 402 kts | 53° |
| 2026-05-07 20:04 | 34.40062 | -117.60725 | 24099 ft | 401 kts | 53° |
| 2026-05-07 20:04 | 34.41679 | -117.58046 | 24472 ft | 398 kts | 53° |
| 2026-05-07 20:04 | 34.43308 | -117.55339 | 24807 ft | 397 kts | 53° |
| 2026-05-07 20:04 | 34.44933 | -117.52628 | 25100 ft | 397 kts | 53° |
| 2026-05-07 20:05 | 34.46551 | -117.49921 | 25480 ft | 397 kts | 53° |
| 2026-05-07 20:05 | 34.48164 | -117.47213 | 25805 ft | 396 kts | 53° |
| 2026-05-07 20:05 | 34.49771 | -117.44513 | 26177 ft | 393 kts | 53° |
| 2026-05-07 20:05 | 34.51370 | -117.41821 | 26513 ft | 392 kts | 53° |
| 2026-05-07 20:06 | 34.52967 | -117.39131 | 26780 ft | 393 kts | 53° |
| 2026-05-07 20:06 | 34.54564 | -117.36438 | 27050 ft | 393 kts | 53° |
| 2026-05-07 20:06 | 34.56160 | -117.33746 | 27358 ft | 392 kts | 53° |
| 2026-05-07 20:06 | 34.57745 | -117.31070 | 27648 ft | 391 kts | 53° |
| 2026-05-07 20:07 | 34.59333 | -117.28389 | 27911 ft | 391 kts | 52° |
| 2026-05-07 20:07 | 34.60915 | -117.25713 | 28163 ft | 390 kts | 52° |
| 2026-05-07 20:07 | 34.62500 | -117.23031 | 28415 ft | 390 kts | 52° |
| 2026-05-07 20:07 | 34.64077 | -117.20361 | 28667 ft | 390 kts | 52° |
| 2026-05-07 20:08 | 34.65657 | -117.17684 | 28829 ft | 389 kts | 52° |
| 2026-05-07 20:08 | 34.67233 | -117.15012 | 28990 ft | 392 kts | 52° |
| 2026-05-07 20:08 | 34.70456 | -117.09543 | 29005 ft | 403 kts | 52° |
| 2026-05-07 20:09 | 34.73739 | -117.03961 | 29009 ft | 413 kts | 52° |
| 2026-05-07 20:10 | 34.78828 | -116.95289 | 29024 ft | 426 kts | 52° |
| 2026-05-07 20:10 | 34.82303 | -116.89356 | 29032 ft | 433 kts | 53° |
| 2026-05-07 20:11 | 34.85822 | -116.83335 | 29039 ft | 439 kts | 53° |
| 2026-05-07 20:11 | 34.89390 | -116.77222 | 29029 ft | 444 kts | 53° |
| 2026-05-07 20:12 | 34.92979 | -116.71047 | 28994 ft | 449 kts | 53° |
| 2026-05-07 20:12 | 34.94759 | -116.67916 | 28563 ft | 460 kts | 54° |
| 2026-05-07 20:12 | 34.96592 | -116.64658 | 28078 ft | 470 kts | 54° |
| 2026-05-07 20:13 | 35.00268 | -116.58098 | 28075 ft | 467 kts | 54° |
| 2026-05-07 20:13 | 35.03935 | -116.51567 | 28066 ft | 466 kts | 54° |
| 2026-05-07 20:14 | 35.07593 | -116.45055 | 28039 ft | 465 kts | 54° |
| 2026-05-07 20:14 | 35.11378 | -116.38672 | 28008 ft | 463 kts | 47° |
| 2026-05-07 20:15 | 35.15844 | -116.33026 | 28032 ft | 462 kts | 44° |
| 2026-05-07 20:15 | 35.20312 | -116.27374 | 28017 ft | 462 kts | 45° |
| 2026-05-07 20:16 | 35.24665 | -116.21654 | 28007 ft | 462 kts | 46° |
| 2026-05-07 20:16 | 35.26786 | -116.18726 | 27656 ft | 459 kts | 47° |
| 2026-05-07 20:16 | 35.28912 | -116.15776 | 27008 ft | 463 kts | 47° |
| 2026-05-07 20:16 | 35.31057 | -116.12817 | 26404 ft | 466 kts | 47° |
| 2026-05-07 20:17 | 35.33235 | -116.09888 | 26107 ft | 461 kts | 43° |
| 2026-05-07 20:17 | 35.35784 | -116.07538 | 25684 ft | 458 kts | 27° |
| 2026-05-07 20:17 | 35.38760 | -116.06203 | 25345 ft | 456 kts | 11° |
| 2026-05-07 20:17 | 35.41916 | -116.05953 | 25005 ft | 456 kts | 357° |
| 2026-05-07 20:18 | 35.45061 | -116.06379 | 24674 ft | 455 kts | 353° |
| 2026-05-07 20:18 | 35.48203 | -116.06975 | 24323 ft | 455 kts | 352° |
| 2026-05-07 20:18 | 35.51337 | -116.07574 | 23974 ft | 454 kts | 356° |
| 2026-05-07 20:18 | 35.54477 | -116.07387 | 23617 ft | 453 kts | 12° |
| 2026-05-07 20:19 | 35.57466 | -116.06159 | 23076 ft | 456 kts | 26° |
| 2026-05-07 20:19 | 35.60093 | -116.04004 | 22784 ft | 454 kts | 41° |
| 2026-05-07 20:19 | 35.62168 | -116.01111 | 22779 ft | 449 kts | 55° |
| 2026-05-07 20:19 | 35.63539 | -115.97741 | 22658 ft | 448 kts | 69° |
| 2026-05-07 20:20 | 35.64167 | -115.93956 | 22253 ft | 455 kts | 84° |
| 2026-05-07 20:20 | 35.64042 | -115.90059 | 21874 ft | 462 kts | 98° |
| 2026-05-07 20:20 | 35.63102 | -115.86269 | 21523 ft | 467 kts | 109° |
| 2026-05-07 20:20 | 35.61842 | -115.82567 | 21209 ft | 467 kts | 110° |
| 2026-05-07 20:21 | 35.60858 | -115.78822 | 21207 ft | 455 kts | 95° |
| 2026-05-07 20:21 | 35.60940 | -115.75011 | 21188 ft | 443 kts | 76° |
| 2026-05-07 20:21 | 35.61844 | -115.71442 | 20974 ft | 439 kts | 64° |
| 2026-05-07 20:21 | 35.63371 | -115.68210 | 20728 ft | 437 kts | 51° |
| 2026-05-07 20:22 | 35.65383 | -115.65425 | 20375 ft | 439 kts | 45° |
| 2026-05-07 20:22 | 35.67515 | -115.62689 | 20026 ft | 442 kts | 44° |
| 2026-05-07 20:22 | 35.69856 | -115.60334 | 20071 ft | 434 kts | 31° |
| 2026-05-07 20:22 | 35.72632 | -115.58894 | 19809 ft | 435 kts | 13° |
| 2026-05-07 20:23 | 35.75646 | -115.58542 | 19526 ft | 438 kts | 357° |
| 2026-05-07 20:23 | 35.78569 | -115.59347 | 19551 ft | 435 kts | 340° |
| 2026-05-07 20:23 | 35.81298 | -115.60941 | 19493 ft | 434 kts | 333° |
| 2026-05-07 20:23 | 35.83946 | -115.62742 | 19236 ft | 429 kts | 332° |
| 2026-05-07 20:24 | 35.86456 | -115.64520 | 18973 ft | 404 kts | 332° |
| 2026-05-07 20:24 | 35.88807 | -115.66218 | 18790 ft | 379 kts | 331° |
| 2026-05-07 20:24 | 35.91038 | -115.67844 | 18166 ft | 369 kts | 331° |
| 2026-05-07 20:24 | 35.93225 | -115.69443 | 17533 ft | 360 kts | 331° |
| 2026-05-07 20:25 | 35.95403 | -115.70874 | 16865 ft | 351 kts | 343° |
| 2026-05-07 20:25 | 35.97761 | -115.71137 | 16416 ft | 335 kts | 12° |
| 2026-05-07 20:25 | 35.99847 | -115.70125 | 16329 ft | 313 kts | 31° |
| 2026-05-07 20:25 | 36.01531 | -115.68540 | 16081 ft | 300 kts | 44° |
| 2026-05-07 20:26 | 36.02824 | -115.66534 | 15559 ft | 299 kts | 57° |
| 2026-05-07 20:26 | 36.03724 | -115.64195 | 14924 ft | 303 kts | 69° |
| 2026-05-07 20:26 | 36.04140 | -115.61667 | 14420 ft | 304 kts | 88° |
| 2026-05-07 20:26 | 36.03994 | -115.59061 | 13931 ft | 303 kts | 94° |
| 2026-05-07 20:27 | 36.03743 | -115.56509 | 13437 ft | 305 kts | 96° |
| 2026-05-07 20:27 | 36.03471 | -115.53917 | 13120 ft | 302 kts | 96° |
| 2026-05-07 20:27 | 36.03205 | -115.51354 | 12821 ft | 299 kts | 95° |
| 2026-05-07 20:27 | 36.02947 | -115.48805 | 12444 ft | 299 kts | 95° |
| 2026-05-07 20:28 | 36.02691 | -115.46249 | 12080 ft | 300 kts | 96° |
| 2026-05-07 20:28 | 36.02441 | -115.43712 | 11720 ft | 299 kts | 95° |
| 2026-05-07 20:28 | 36.02192 | -115.41173 | 11380 ft | 298 kts | 95° |
| 2026-05-07 20:28 | 36.01941 | -115.38621 | 11042 ft | 298 kts | 96° |
| 2026-05-07 20:29 | 36.01691 | -115.36084 | 10734 ft | 296 kts | 96° |
| 2026-05-07 20:29 | 36.01485 | -115.33553 | 10384 ft | 296 kts | 93° |
| 2026-05-07 20:29 | 36.01342 | -115.31022 | 10142 ft | 293 kts | 91° |
| 2026-05-07 20:29 | 36.01214 | -115.28520 | 9880 ft | 290 kts | 91° |
| 2026-05-07 20:30 | 36.01086 | -115.26059 | 9672 ft | 286 kts | 91° |
| 2026-05-07 20:30 | 36.00955 | -115.23624 | 9490 ft | 283 kts | 91° |
| 2026-05-07 20:30 | 36.00822 | -115.21203 | 9338 ft | 283 kts | 91° |
| 2026-05-07 20:30 | 36.00687 | -115.18779 | 9175 ft | 282 kts | 91° |
| 2026-05-07 20:31 | 36.00624 | -115.17672 | 9096 ft | 279 kts | 92° |
| 2026-05-07 20:31 | 36.00606 | -115.17352 | 9078 ft | 278 kts | 92° |
| 2026-05-07 20:31 | 36.00488 | -115.15292 | 8932 ft | 273 kts | 92° |
| 2026-05-07 20:31 | 36.00354 | -115.12976 | 8772 ft | 267 kts | 92° |
| 2026-05-07 20:32 | 36.00224 | -115.10725 | 8618 ft | 260 kts | 92° |
| 2026-05-07 20:32 | 36.00096 | -115.08512 | 8472 ft | 254 kts | 92° |
| 2026-05-07 20:32 | 35.99972 | -115.06368 | 8333 ft | 248 kts | 92° |
| 2026-05-07 20:32 | 35.99905 | -115.04268 | 8193 ft | 243 kts | 89° |
| 2026-05-07 20:33 | 35.99899 | -115.02186 | 8070 ft | 242 kts | 88° |
| 2026-05-07 20:33 | 35.99901 | -115.00109 | 7799 ft | 246 kts | 88° |
| 2026-05-07 20:33 | 35.99896 | -114.98032 | 7487 ft | 237 kts | 88° |
| 2026-05-07 20:33 | 35.99886 | -114.96033 | 7188 ft | 228 kts | 89° |
| 2026-05-07 20:34 | 35.99867 | -114.94124 | 6908 ft | 218 kts | 90° |
| 2026-05-07 20:34 | 35.99828 | -114.92286 | 6619 ft | 209 kts | 88° |
| 2026-05-07 20:34 | 36.00142 | -114.90659 | 6413 ft | 193 kts | 61° |
| 2026-05-07 20:34 | 36.00789 | -114.89217 | 6342 ft | 196 kts | 57° |
| 2026-05-07 20:35 | 36.01740 | -114.88059 | 6033 ft | 193 kts | 17° |
| 2026-05-07 20:35 | 36.03778 | -114.88921 | 5786 ft | 178 kts | 321° |
| 2026-05-07 20:35 | 36.04782 | -114.89872 | 5559 ft | 184 kts | 324° |
| 2026-05-07 20:36 | 36.05823 | -114.90794 | 5343 ft | 188 kts | 325° |
| 2026-05-07 20:36 | 36.06774 | -114.91902 | 5085 ft | 190 kts | 301° |
| 2026-05-07 20:36 | 36.07224 | -114.93400 | 4835 ft | 188 kts | 273° |
| 2026-05-07 20:36 | 36.07285 | -114.94980 | 4715 ft | 183 kts | 275° |
| 2026-05-07 20:37 | 36.07360 | -114.96560 | 4523 ft | 186 kts | 272° |
| 2026-05-07 20:37 | 36.07378 | -114.98184 | 4283 ft | 190 kts | 270° |
| 2026-05-07 20:37 | 36.07377 | -114.99798 | 4040 ft | 186 kts | 270° |
| 2026-05-07 20:37 | 36.07374 | -115.01345 | 3835 ft | 177 kts | 270° |
| 2026-05-07 20:38 | 36.07371 | -115.02881 | 3638 ft | 174 kts | 270° |
| 2026-05-07 20:38 | 36.07369 | -115.04326 | 3391 ft | 167 kts | 270° |
| 2026-05-07 20:38 | 36.07368 | -115.05707 | 3200 ft | 159 kts | 270° |
| 2026-05-07 20:38 | 36.07367 | -115.07074 | 3002 ft | 160 kts | 270° |
| 2026-05-07 20:39 | 36.07366 | -115.08410 | 2782 ft | 156 kts | 269° |
| 2026-05-07 20:39 | 36.07365 | -115.09723 | 2559 ft | 152 kts | 269° |
| 2026-05-07 20:39 | 36.07365 | -115.11034 | 2348 ft | 152 kts | 269° |
| 2026-05-07 20:39 | 36.07368 | -115.12326 | 2133 ft | 152 kts | 268° |
| 2026-05-07 20:40 | 36.07365 | -115.13553 | 2072 ft | 122 kts | 269° |
| 2026-05-07 20:40 | 36.07365 | -115.14310 | 2087 ft | 61 kts | 270° |
| 2026-05-07 20:40 | 36.07367 | -115.14650 | 2091 ft | 34 kts | 271° |
| 2026-05-07 20:40 | 36.07412 | -115.14902 | 2096 ft | 27 kts | 293° |
| 2026-05-07 20:41 | 36.07472 | -115.15049 | 2098 ft | 14 kts | 299° |
| 2026-05-07 20:41 | 36.07522 | -115.15122 | 2101 ft | 11 kts | 321° |
| 2026-05-07 20:41 | 36.07604 | -115.15177 | 2108 ft | 15 kts | 334° |
| 2026-05-07 20:41 | 36.07699 | -115.15232 | 2108 ft | 15 kts | 336° |
| 2026-05-07 20:42 | 36.07766 | -115.15269 | 2103 ft | 19 kts | 335° |
| 2026-05-07 20:42 | 36.07831 | -115.15306 | 2101 ft | 11 kts | 341° |
| 2026-05-07 20:42 | 36.07877 | -115.15245 | 2098 ft | 13 kts | 86° |
| 2026-05-07 20:42 | 36.07877 | -115.15087 | 2097 ft | 22 kts | 93° |
| 2026-05-07 20:43 | 36.07863 | -115.14897 | 2097 ft | 22 kts | 94° |
| 2026-05-07 20:43 | 36.07852 | -115.14714 | 2096 ft | 22 kts | 95° |
| 2026-05-07 20:43 | 36.07838 | -115.14493 | 2095 ft | 28 kts | 94° |
| 2026-05-07 20:43 | 36.07828 | -115.14267 | 2094 ft | 23 kts | 90° |
| 2026-05-07 20:44 | 36.07884 | -115.14159 | 2094 ft | 13 kts | 358° |
| 2026-05-07 20:44 | 36.07962 | -115.14158 | 2094 ft | 0 kts | 1° |
| 2026-05-07 20:45 | 36.07978 | -115.14158 | 2094 ft | 8 kts | 360° |
| 2026-05-07 20:45 | 36.08033 | -115.14143 | 2093 ft | 8 kts | 53° |
| 2026-05-07 20:45 | 36.08027 | -115.14082 | 2093 ft | 6 kts | 95° |
| 2026-05-07 20:45 | 36.08025 | -115.14058 | 2093 ft | 0 kts | 95° |